sensor_id;sensor_type;location;lat;lon;timestamp;P1;durP1;ratioP1;P2;durP2;ratioP2
4756;SDS011;2392;52.578;13.426;2022-11-15T00:01:16;41.40;;;27.83;;
4756;SDS011;2392;52.578;13.426;2022-11-15T00:04:02;42.00;;;28.80;;
4756;SDS011;2392;52.578;13.426;2022-11-15T00:06:48;44.87;;;28.87;;
4756;SDS011;2392;52.578;13.426;2022-11-15T00:09:34;44.93;;;28.53;;
4756;SDS011;2392;52.578;13.426;2022-11-15T00:12:19;46.43;;;26.97;;
4756;SDS011;2392;52.578;13.426;2022-11-15T00:15:05;40.30;;;25.90;;
4756;SDS011;2392;52.578;13.426;2022-11-15T00:17:53;44.60;;;27.80;;
4756;SDS011;2392;52.578;13.426;2022-11-15T00:20:38;39.83;;;27.67;;
4756;SDS011;2392;52.578;13.426;2022-11-15T00:23:24;40.00;;;26.37;;
4756;SDS011;2392;52.578;13.426;2022-11-15T00:26:10;50.17;;;29.57;;
4756;SDS011;2392;52.578;13.426;2022-11-15T00:28:57;45.27;;;29.50;;
4756;SDS011;2392;52.578;13.426;2022-11-15T00:31:42;41.67;;;26.83;;
4756;SDS011;2392;52.578;13.426;2022-11-15T00:34:29;40.80;;;26.13;;
4756;SDS011;2392;52.578;13.426;2022-11-15T00:37:15;41.27;;;27.00;;
4756;SDS011;2392;52.578;13.426;2022-11-15T00:40:01;38.33;;;26.63;;
4756;SDS011;2392;52.578;13.426;2022-11-15T00:42:46;36.33;;;25.27;;
4756;SDS011;2392;52.578;13.426;2022-11-15T00:45:33;39.70;;;27.07;;
4756;SDS011;2392;52.578;13.426;2022-11-15T00:48:18;42.83;;;28.33;;
4756;SDS011;2392;52.578;13.426;2022-11-15T00:51:05;42.50;;;27.97;;
4756;SDS011;2392;52.578;13.426;2022-11-15T00:53:51;41.70;;;26.40;;
4756;SDS011;2392;52.578;13.426;2022-11-15T00:56:37;39.80;;;28.50;;
4756;SDS011;2392;52.578;13.426;2022-11-15T00:59:22;41.73;;;26.00;;
4756;SDS011;2392;52.578;13.426;2022-11-15T01:02:08;44.53;;;28.53;;
4756;SDS011;2392;52.578;13.426;2022-11-15T01:04:53;37.43;;;26.47;;
4756;SDS011;2392;52.578;13.426;2022-11-15T01:07:41;41.57;;;28.93;;
4756;SDS011;2392;52.578;13.426;2022-11-15T01:10:26;38.93;;;26.97;;
4756;SDS011;2392;52.578;13.426;2022-11-15T01:13:11;42.07;;;27.00;;
4756;SDS011;2392;52.578;13.426;2022-11-15T01:15:57;42.90;;;27.77;;
4756;SDS011;2392;52.578;13.426;2022-11-15T01:18:43;38.30;;;26.60;;
4756;SDS011;2392;52.578;13.426;2022-11-15T01:21:30;44.03;;;27.53;;
4756;SDS011;2392;52.578;13.426;2022-11-15T01:24:17;39.77;;;27.03;;
4756;SDS011;2392;52.578;13.426;2022-11-15T01:27:02;38.17;;;27.53;;
4756;SDS011;2392;52.578;13.426;2022-11-15T01:29:48;45.10;;;28.20;;
4756;SDS011;2392;52.578;13.426;2022-11-15T01:32:34;39.70;;;27.47;;
4756;SDS011;2392;52.578;13.426;2022-11-15T01:35:19;42.20;;;28.00;;
4756;SDS011;2392;52.578;13.426;2022-11-15T01:38:05;39.10;;;26.33;;
4756;SDS011;2392;52.578;13.426;2022-11-15T01:40:52;37.40;;;26.37;;
4756;SDS011;2392;52.578;13.426;2022-11-15T01:43:39;40.60;;;26.67;;
4756;SDS011;2392;52.578;13.426;2022-11-15T01:46:26;38.50;;;27.40;;
4756;SDS011;2392;52.578;13.426;2022-11-15T01:49:15;40.30;;;26.87;;
4756;SDS011;2392;52.578;13.426;2022-11-15T01:52:03;34.80;;;24.73;;
4756;SDS011;2392;52.578;13.426;2022-11-15T01:54:53;38.40;;;26.60;;
4756;SDS011;2392;52.578;13.426;2022-11-15T01:57:45;43.50;;;28.00;;
4756;SDS011;2392;52.578;13.426;2022-11-15T02:00:34;41.30;;;27.83;;
4756;SDS011;2392;52.578;13.426;2022-11-15T02:03:20;39.37;;;26.53;;
4756;SDS011;2392;52.578;13.426;2022-11-15T02:06:10;41.07;;;28.03;;
4756;SDS011;2392;52.578;13.426;2022-11-15T02:08:55;48.73;;;27.90;;
4756;SDS011;2392;52.578;13.426;2022-11-15T02:11:41;39.13;;;26.60;;
4756;SDS011;2392;52.578;13.426;2022-11-15T02:14:31;44.53;;;27.00;;
4756;SDS011;2392;52.578;13.426;2022-11-15T02:17:30;41.17;;;27.20;;
4756;SDS011;2392;52.578;13.426;2022-11-15T02:20:31;40.53;;;26.43;;
4756;SDS011;2392;52.578;13.426;2022-11-15T02:23:44;40.13;;;26.70;;
4756;SDS011;2392;52.578;13.426;2022-11-15T02:33:26;40.10;;;26.23;;
4756;SDS011;2392;52.578;13.426;2022-11-15T02:36:22;45.50;;;27.07;;
4756;SDS011;2392;52.578;13.426;2022-11-15T02:39:18;43.30;;;28.10;;
4756;SDS011;2392;52.578;13.426;2022-11-15T02:42:14;47.60;;;28.20;;
4756;SDS011;2392;52.578;13.426;2022-11-15T02:45:21;39.03;;;25.60;;
4756;SDS011;2392;52.578;13.426;2022-11-15T02:48:12;43.30;;;25.87;;
4756;SDS011;2392;52.578;13.426;2022-11-15T02:51:00;41.67;;;27.57;;
4756;SDS011;2392;52.578;13.426;2022-11-15T02:53:46;41.70;;;26.97;;
4756;SDS011;2392;52.578;13.426;2022-11-15T02:56:32;42.93;;;27.27;;
4756;SDS011;2392;52.578;13.426;2022-11-15T03:02:40;38.97;;;27.20;;
4756;SDS011;2392;52.578;13.426;2022-11-15T03:05:36;40.67;;;27.73;;
4756;SDS011;2392;52.578;13.426;2022-11-15T03:08:26;38.90;;;26.37;;
4756;SDS011;2392;52.578;13.426;2022-11-15T03:11:17;40.60;;;27.17;;
4756;SDS011;2392;52.578;13.426;2022-11-15T03:14:07;40.90;;;27.37;;
4756;SDS011;2392;52.578;13.426;2022-11-15T03:17:03;46.67;;;26.47;;
4756;SDS011;2392;52.578;13.426;2022-11-15T03:19:57;43.57;;;27.90;;
4756;SDS011;2392;52.578;13.426;2022-11-15T03:22:46;42.83;;;26.77;;
4756;SDS011;2392;52.578;13.426;2022-11-15T03:25:33;38.70;;;26.60;;
4756;SDS011;2392;52.578;13.426;2022-11-15T03:28:22;41.30;;;27.47;;
4756;SDS011;2392;52.578;13.426;2022-11-15T03:31:11;44.63;;;27.27;;
4756;SDS011;2392;52.578;13.426;2022-11-15T03:34:19;38.50;;;26.73;;
4756;SDS011;2392;52.578;13.426;2022-11-15T03:37:09;37.23;;;25.33;;
4756;SDS011;2392;52.578;13.426;2022-11-15T03:40:00;37.90;;;25.40;;
4756;SDS011;2392;52.578;13.426;2022-11-15T03:42:46;44.73;;;27.77;;
4756;SDS011;2392;52.578;13.426;2022-11-15T03:45:39;48.77;;;27.77;;
4756;SDS011;2392;52.578;13.426;2022-11-15T03:48:30;40.03;;;26.93;;
4756;SDS011;2392;52.578;13.426;2022-11-15T03:51:20;42.83;;;27.60;;
4756;SDS011;2392;52.578;13.426;2022-11-15T03:54:06;38.30;;;26.13;;
4756;SDS011;2392;52.578;13.426;2022-11-15T03:56:53;38.93;;;26.90;;
4756;SDS011;2392;52.578;13.426;2022-11-15T03:59:38;39.27;;;25.43;;
4756;SDS011;2392;52.578;13.426;2022-11-15T04:02:24;44.10;;;28.37;;
4756;SDS011;2392;52.578;13.426;2022-11-15T04:05:09;38.70;;;26.37;;
4756;SDS011;2392;52.578;13.426;2022-11-15T04:07:55;38.40;;;26.80;;
4756;SDS011;2392;52.578;13.426;2022-11-15T04:10:40;37.13;;;26.47;;
4756;SDS011;2392;52.578;13.426;2022-11-15T04:13:27;41.57;;;26.73;;
4756;SDS011;2392;52.578;13.426;2022-11-15T04:16:13;43.47;;;29.40;;
4756;SDS011;2392;52.578;13.426;2022-11-15T04:18:58;37.73;;;25.77;;
4756;SDS011;2392;52.578;13.426;2022-11-15T04:22:01;37.53;;;25.90;;
4756;SDS011;2392;52.578;13.426;2022-11-15T04:25:04;42.53;;;27.70;;
4756;SDS011;2392;52.578;13.426;2022-11-15T04:27:50;41.87;;;27.57;;
4756;SDS011;2392;52.578;13.426;2022-11-15T04:30:37;42.37;;;27.43;;
4756;SDS011;2392;52.578;13.426;2022-11-15T04:33:23;45.07;;;27.70;;
4756;SDS011;2392;52.578;13.426;2022-11-15T04:36:08;37.53;;;25.47;;
4756;SDS011;2392;52.578;13.426;2022-11-15T04:39:11;37.80;;;26.57;;
4756;SDS011;2392;52.578;13.426;2022-11-15T04:41:57;38.20;;;25.37;;
4756;SDS011;2392;52.578;13.426;2022-11-15T04:44:42;37.60;;;25.67;;
4756;SDS011;2392;52.578;13.426;2022-11-15T04:47:29;38.17;;;26.43;;
4756;SDS011;2392;52.578;13.426;2022-11-15T04:50:15;38.33;;;26.47;;
4756;SDS011;2392;52.578;13.426;2022-11-15T04:53:01;42.03;;;26.70;;
4756;SDS011;2392;52.578;13.426;2022-11-15T04:55:47;40.67;;;26.17;;
4756;SDS011;2392;52.578;13.426;2022-11-15T04:58:32;38.00;;;26.63;;
4756;SDS011;2392;52.578;13.426;2022-11-15T05:01:18;39.60;;;25.70;;
4756;SDS011;2392;52.578;13.426;2022-11-15T05:04:06;41.30;;;26.10;;
4756;SDS011;2392;52.578;13.426;2022-11-15T05:07:03;46.63;;;28.57;;
4756;SDS011;2392;52.578;13.426;2022-11-15T05:09:49;41.37;;;28.37;;
4756;SDS011;2392;52.578;13.426;2022-11-15T05:12:34;40.03;;;26.70;;
4756;SDS011;2392;52.578;13.426;2022-11-15T05:15:20;41.10;;;27.97;;
4756;SDS011;2392;52.578;13.426;2022-11-15T05:18:05;39.67;;;27.83;;
4756;SDS011;2392;52.578;13.426;2022-11-15T05:20:52;40.20;;;28.00;;
4756;SDS011;2392;52.578;13.426;2022-11-15T05:23:38;39.90;;;26.20;;
4756;SDS011;2392;52.578;13.426;2022-11-15T05:26:24;43.00;;;28.57;;
4756;SDS011;2392;52.578;13.426;2022-11-15T05:29:10;44.37;;;28.33;;
4756;SDS011;2392;52.578;13.426;2022-11-15T05:31:55;38.27;;;24.60;;
4756;SDS011;2392;52.578;13.426;2022-11-15T05:34:41;41.77;;;28.50;;
4756;SDS011;2392;52.578;13.426;2022-11-15T05:37:28;40.70;;;26.10;;
4756;SDS011;2392;52.578;13.426;2022-11-15T05:40:14;43.73;;;28.07;;
4756;SDS011;2392;52.578;13.426;2022-11-15T05:43:00;42.53;;;28.00;;
4756;SDS011;2392;52.578;13.426;2022-11-15T05:45:49;38.73;;;25.50;;
4756;SDS011;2392;52.578;13.426;2022-11-15T05:48:35;40.27;;;27.07;;
4756;SDS011;2392;52.578;13.426;2022-11-15T05:51:22;46.27;;;28.20;;
4756;SDS011;2392;52.578;13.426;2022-11-15T05:54:09;39.30;;;26.23;;
4756;SDS011;2392;52.578;13.426;2022-11-15T05:56:56;39.23;;;26.07;;
4756;SDS011;2392;52.578;13.426;2022-11-15T05:59:41;39.33;;;26.90;;
4756;SDS011;2392;52.578;13.426;2022-11-15T06:02:27;44.90;;;27.87;;
4756;SDS011;2392;52.578;13.426;2022-11-15T06:05:13;40.00;;;27.20;;
4756;SDS011;2392;52.578;13.426;2022-11-15T06:07:59;41.27;;;26.80;;
4756;SDS011;2392;52.578;13.426;2022-11-15T06:10:46;39.73;;;26.47;;
4756;SDS011;2392;52.578;13.426;2022-11-15T06:13:31;42.40;;;25.17;;
4756;SDS011;2392;52.578;13.426;2022-11-15T06:16:17;35.77;;;24.20;;
4756;SDS011;2392;52.578;13.426;2022-11-15T06:19:02;41.03;;;28.07;;
4756;SDS011;2392;52.578;13.426;2022-11-15T06:21:48;41.57;;;26.60;;
4756;SDS011;2392;52.578;13.426;2022-11-15T06:24:33;45.60;;;28.63;;
4756;SDS011;2392;52.578;13.426;2022-11-15T06:27:20;45.37;;;28.30;;
4756;SDS011;2392;52.578;13.426;2022-11-15T06:30:06;45.43;;;29.33;;
4756;SDS011;2392;52.578;13.426;2022-11-15T06:32:58;39.20;;;27.30;;
4756;SDS011;2392;52.578;13.426;2022-11-15T06:35:44;40.40;;;26.57;;
4756;SDS011;2392;52.578;13.426;2022-11-15T06:38:30;43.93;;;27.00;;
4756;SDS011;2392;52.578;13.426;2022-11-15T06:41:15;41.87;;;28.07;;
4756;SDS011;2392;52.578;13.426;2022-11-15T06:44:02;39.73;;;27.43;;
4756;SDS011;2392;52.578;13.426;2022-11-15T06:46:48;46.00;;;29.60;;
4756;SDS011;2392;52.578;13.426;2022-11-15T06:49:34;44.33;;;27.70;;
4756;SDS011;2392;52.578;13.426;2022-11-15T06:52:19;44.97;;;29.20;;
4756;SDS011;2392;52.578;13.426;2022-11-15T06:55:05;46.40;;;29.37;;
4756;SDS011;2392;52.578;13.426;2022-11-15T06:57:52;41.17;;;27.00;;
4756;SDS011;2392;52.578;13.426;2022-11-15T07:00:39;39.40;;;27.03;;
4756;SDS011;2392;52.578;13.426;2022-11-15T07:03:24;39.73;;;27.13;;
4756;SDS011;2392;52.578;13.426;2022-11-15T07:06:10;46.43;;;28.70;;
4756;SDS011;2392;52.578;13.426;2022-11-15T07:08:56;42.80;;;28.47;;
4756;SDS011;2392;52.578;13.426;2022-11-15T07:11:41;41.00;;;28.10;;
4756;SDS011;2392;52.578;13.426;2022-11-15T07:14:27;46.90;;;29.60;;
4756;SDS011;2392;52.578;13.426;2022-11-15T07:17:14;39.10;;;26.30;;
4756;SDS011;2392;52.578;13.426;2022-11-15T07:19:59;40.10;;;28.17;;
4756;SDS011;2392;52.578;13.426;2022-11-15T07:22:45;48.30;;;27.13;;
4756;SDS011;2392;52.578;13.426;2022-11-15T07:25:30;41.10;;;27.53;;
4756;SDS011;2392;52.578;13.426;2022-11-15T07:28:16;40.30;;;26.97;;
4756;SDS011;2392;52.578;13.426;2022-11-15T07:31:02;41.90;;;28.03;;
4756;SDS011;2392;52.578;13.426;2022-11-15T07:33:49;44.87;;;26.60;;
4756;SDS011;2392;52.578;13.426;2022-11-15T07:36:35;44.67;;;28.13;;
4756;SDS011;2392;52.578;13.426;2022-11-15T07:39:20;45.20;;;29.50;;
4756;SDS011;2392;52.578;13.426;2022-11-15T07:42:06;45.83;;;28.57;;
4756;SDS011;2392;52.578;13.426;2022-11-15T07:45:06;39.93;;;26.83;;
4756;SDS011;2392;52.578;13.426;2022-11-15T07:47:52;46.40;;;30.80;;
4756;SDS011;2392;52.578;13.426;2022-11-15T07:50:41;39.83;;;26.87;;
4756;SDS011;2392;52.578;13.426;2022-11-15T07:53:27;48.73;;;28.13;;
4756;SDS011;2392;52.578;13.426;2022-11-15T07:56:13;43.33;;;27.37;;
4756;SDS011;2392;52.578;13.426;2022-11-15T07:58:58;42.30;;;27.17;;
4756;SDS011;2392;52.578;13.426;2022-11-15T08:01:44;42.00;;;26.80;;
4756;SDS011;2392;52.578;13.426;2022-11-15T08:04:30;37.50;;;26.00;;
4756;SDS011;2392;52.578;13.426;2022-11-15T08:07:17;42.87;;;28.27;;
4756;SDS011;2392;52.578;13.426;2022-11-15T08:10:02;45.50;;;28.70;;
4756;SDS011;2392;52.578;13.426;2022-11-15T08:12:56;44.67;;;29.57;;
4756;SDS011;2392;52.578;13.426;2022-11-15T08:15:42;40.10;;;27.60;;
4756;SDS011;2392;52.578;13.426;2022-11-15T08:18:28;45.17;;;29.80;;
4756;SDS011;2392;52.578;13.426;2022-11-15T08:21:14;38.40;;;28.83;;
4756;SDS011;2392;52.578;13.426;2022-11-15T08:24:05;47.23;;;27.87;;
4756;SDS011;2392;52.578;13.426;2022-11-15T08:26:53;50.10;;;29.57;;
4756;SDS011;2392;52.578;13.426;2022-11-15T08:29:39;44.33;;;30.20;;
4756;SDS011;2392;52.578;13.426;2022-11-15T08:32:25;42.03;;;30.23;;
4756;SDS011;2392;52.578;13.426;2022-11-15T08:35:11;45.80;;;30.07;;
4756;SDS011;2392;52.578;13.426;2022-11-15T08:37:56;41.37;;;27.57;;
4756;SDS011;2392;52.578;13.426;2022-11-15T08:40:44;45.03;;;30.40;;
4756;SDS011;2392;52.578;13.426;2022-11-15T08:43:29;37.50;;;26.47;;
4756;SDS011;2392;52.578;13.426;2022-11-15T08:46:15;35.97;;;25.40;;
4756;SDS011;2392;52.578;13.426;2022-11-15T08:49:02;39.77;;;25.90;;
4756;SDS011;2392;52.578;13.426;2022-11-15T08:51:48;37.67;;;26.33;;
4756;SDS011;2392;52.578;13.426;2022-11-15T08:54:36;32.40;;;22.73;;
4756;SDS011;2392;52.578;13.426;2022-11-15T08:57:24;34.70;;;23.93;;
4756;SDS011;2392;52.578;13.426;2022-11-15T09:00:10;34.00;;;22.93;;
4756;SDS011;2392;52.578;13.426;2022-11-15T09:02:56;38.27;;;24.83;;
4756;SDS011;2392;52.578;13.426;2022-11-15T09:05:43;35.50;;;24.57;;
4756;SDS011;2392;52.578;13.426;2022-11-15T09:08:29;32.20;;;22.20;;
4756;SDS011;2392;52.578;13.426;2022-11-15T09:11:15;35.50;;;23.83;;
4756;SDS011;2392;52.578;13.426;2022-11-15T09:14:05;31.37;;;21.60;;
4756;SDS011;2392;52.578;13.426;2022-11-15T09:16:50;32.70;;;21.60;;
4756;SDS011;2392;52.578;13.426;2022-11-15T09:19:36;39.43;;;22.27;;
4756;SDS011;2392;52.578;13.426;2022-11-15T09:22:21;33.23;;;23.43;;
4756;SDS011;2392;52.578;13.426;2022-11-15T09:25:07;33.87;;;21.97;;
4756;SDS011;2392;52.578;13.426;2022-11-15T09:27:53;29.60;;;21.10;;
4756;SDS011;2392;52.578;13.426;2022-11-15T09:30:40;27.97;;;21.20;;
4756;SDS011;2392;52.578;13.426;2022-11-15T09:33:26;31.87;;;22.60;;
4756;SDS011;2392;52.578;13.426;2022-11-15T09:36:12;32.30;;;22.43;;
4756;SDS011;2392;52.578;13.426;2022-11-15T09:38:58;31.83;;;21.87;;
4756;SDS011;2392;52.578;13.426;2022-11-15T09:41:49;32.77;;;21.37;;
4756;SDS011;2392;52.578;13.426;2022-11-15T09:47:49;33.43;;;20.73;;
4756;SDS011;2392;52.578;13.426;2022-11-15T09:50:50;30.10;;;20.60;;
4756;SDS011;2392;52.578;13.426;2022-11-15T09:53:21;29.63;;;21.37;;
4756;SDS011;2392;52.578;13.426;2022-11-15T09:55:53;26.30;;;20.97;;
4756;SDS011;2392;52.578;13.426;2022-11-15T09:58:28;27.13;;;20.93;;
4756;SDS011;2392;52.578;13.426;2022-11-15T10:01:02;27.70;;;21.00;;
4756;SDS011;2392;52.578;13.426;2022-11-15T10:03:38;25.63;;;20.83;;
4756;SDS011;2392;52.578;13.426;2022-11-15T10:06:10;30.33;;;21.23;;
4756;SDS011;2392;52.578;13.426;2022-11-15T10:08:54;27.40;;;20.63;;
4756;SDS011;2392;52.578;13.426;2022-11-15T10:11:24;24.60;;;19.33;;
4756;SDS011;2392;52.578;13.426;2022-11-15T10:13:54;26.20;;;21.23;;
4756;SDS011;2392;52.578;13.426;2022-11-15T10:16:30;22.43;;;18.87;;
4756;SDS011;2392;52.578;13.426;2022-11-15T10:19:23;24.13;;;19.40;;
4756;SDS011;2392;52.578;13.426;2022-11-15T10:22:00;22.60;;;19.20;;
4756;SDS011;2392;52.578;13.426;2022-11-15T10:24:39;31.80;;;19.93;;
4756;SDS011;2392;52.578;13.426;2022-11-15T10:27:09;21.53;;;18.20;;
4756;SDS011;2392;52.578;13.426;2022-11-15T10:29:42;23.10;;;17.00;;
4756;SDS011;2392;52.578;13.426;2022-11-15T10:32:10;30.70;;;21.23;;
4756;SDS011;2392;52.578;13.426;2022-11-15T10:34:39;25.40;;;22.00;;
4756;SDS011;2392;52.578;13.426;2022-11-15T10:37:06;21.50;;;17.83;;
4756;SDS011;2392;52.578;13.426;2022-11-15T10:39:33;23.30;;;20.53;;
4756;SDS011;2392;52.578;13.426;2022-11-15T10:42:14;23.43;;;18.37;;
4756;SDS011;2392;52.578;13.426;2022-11-15T10:44:43;28.80;;;20.60;;
4756;SDS011;2392;52.578;13.426;2022-11-15T10:47:24;21.10;;;18.47;;
4756;SDS011;2392;52.578;13.426;2022-11-15T10:49:56;19.83;;;16.67;;
4756;SDS011;2392;52.578;13.426;2022-11-15T10:52:25;23.33;;;19.93;;
4756;SDS011;2392;52.578;13.426;2022-11-15T10:54:53;28.00;;;18.50;;
4756;SDS011;2392;52.578;13.426;2022-11-15T10:57:25;23.80;;;19.50;;
4756;SDS011;2392;52.578;13.426;2022-11-15T10:59:55;25.10;;;19.40;;
4756;SDS011;2392;52.578;13.426;2022-11-15T11:02:28;21.63;;;19.33;;
4756;SDS011;2392;52.578;13.426;2022-11-15T11:04:59;21.30;;;16.17;;
4756;SDS011;2392;52.578;13.426;2022-11-15T11:07:28;19.90;;;18.00;;
4756;SDS011;2392;52.578;13.426;2022-11-15T11:09:57;34.00;;;19.67;;
4756;SDS011;2392;52.578;13.426;2022-11-15T11:12:28;20.93;;;17.90;;
4756;SDS011;2392;52.578;13.426;2022-11-15T11:14:58;18.40;;;16.23;;
4756;SDS011;2392;52.578;13.426;2022-11-15T11:17:29;18.57;;;16.57;;
4756;SDS011;2392;52.578;13.426;2022-11-15T11:20:09;20.90;;;18.50;;
4756;SDS011;2392;52.578;13.426;2022-11-15T11:22:47;20.57;;;18.47;;
4756;SDS011;2392;52.578;13.426;2022-11-15T11:25:27;23.60;;;18.37;;
4756;SDS011;2392;52.578;13.426;2022-11-15T11:28:02;22.40;;;19.47;;
4756;SDS011;2392;52.578;13.426;2022-11-15T11:30:42;19.90;;;17.43;;
4756;SDS011;2392;52.578;13.426;2022-11-15T11:33:16;16.03;;;14.40;;
4756;SDS011;2392;52.578;13.426;2022-11-15T11:35:51;19.83;;;17.23;;
4756;SDS011;2392;52.578;13.426;2022-11-15T11:38:34;20.53;;;17.10;;
4756;SDS011;2392;52.578;13.426;2022-11-15T11:41:10;19.73;;;17.70;;
4756;SDS011;2392;52.578;13.426;2022-11-15T11:43:48;19.80;;;15.97;;
4756;SDS011;2392;52.578;13.426;2022-11-15T11:46:36;20.53;;;17.17;;
4756;SDS011;2392;52.578;13.426;2022-11-15T11:49:16;14.37;;;12.87;;
4756;SDS011;2392;52.578;13.426;2022-11-15T11:51:51;18.43;;;16.13;;
4756;SDS011;2392;52.578;13.426;2022-11-15T11:54:22;18.93;;;15.53;;
4756;SDS011;2392;52.578;13.426;2022-11-15T11:56:56;18.00;;;15.80;;
4756;SDS011;2392;52.578;13.426;2022-11-15T11:59:28;22.53;;;17.63;;
4756;SDS011;2392;52.578;13.426;2022-11-15T12:02:08;17.10;;;15.03;;
4756;SDS011;2392;52.578;13.426;2022-11-15T12:04:41;20.03;;;16.20;;
4756;SDS011;2392;52.578;13.426;2022-11-15T12:07:15;20.23;;;16.50;;
4756;SDS011;2392;52.578;13.426;2022-11-15T12:09:48;20.20;;;17.23;;
4756;SDS011;2392;52.578;13.426;2022-11-15T12:12:21;18.37;;;14.00;;
4756;SDS011;2392;52.578;13.426;2022-11-15T12:14:54;19.70;;;16.27;;
4756;SDS011;2392;52.578;13.426;2022-11-15T12:17:25;17.47;;;15.60;;
4756;SDS011;2392;52.578;13.426;2022-11-15T12:19:57;18.67;;;14.73;;
4756;SDS011;2392;52.578;13.426;2022-11-15T12:22:28;21.60;;;15.30;;
4756;SDS011;2392;52.578;13.426;2022-11-15T12:25:04;21.50;;;15.37;;
4756;SDS011;2392;52.578;13.426;2022-11-15T12:27:35;19.73;;;16.97;;
4756;SDS011;2392;52.578;13.426;2022-11-15T12:30:08;23.33;;;14.90;;
4756;SDS011;2392;52.578;13.426;2022-11-15T12:32:39;21.90;;;14.80;;
4756;SDS011;2392;52.578;13.426;2022-11-15T12:35:20;21.33;;;15.80;;
4756;SDS011;2392;52.578;13.426;2022-11-15T12:37:52;21.10;;;15.90;;
4756;SDS011;2392;52.578;13.426;2022-11-15T12:40:24;20.90;;;16.37;;
4756;SDS011;2392;52.578;13.426;2022-11-15T12:42:57;22.27;;;14.30;;
4756;SDS011;2392;52.578;13.426;2022-11-15T12:45:27;18.43;;;15.57;;
4756;SDS011;2392;52.578;13.426;2022-11-15T12:47:56;21.23;;;16.70;;
4756;SDS011;2392;52.578;13.426;2022-11-15T12:50:57;18.80;;;15.00;;
4756;SDS011;2392;52.578;13.426;2022-11-15T12:53:27;20.63;;;15.10;;
4756;SDS011;2392;52.578;13.426;2022-11-15T12:56:17;18.73;;;14.80;;
4756;SDS011;2392;52.578;13.426;2022-11-15T12:58:50;21.13;;;16.27;;
4756;SDS011;2392;52.578;13.426;2022-11-15T13:04:26;17.57;;;14.30;;
4756;SDS011;2392;52.578;13.426;2022-11-15T13:06:56;18.37;;;15.00;;
4756;SDS011;2392;52.578;13.426;2022-11-15T13:18:40;17.93;;;15.20;;
4756;SDS011;2392;52.578;13.426;2022-11-15T13:21:20;18.33;;;14.53;;
4756;SDS011;2392;52.578;13.426;2022-11-15T13:24:13;20.03;;;14.13;;
4756;SDS011;2392;52.578;13.426;2022-11-15T13:26:43;17.90;;;13.70;;
4756;SDS011;2392;52.578;13.426;2022-11-15T13:29:15;22.03;;;14.43;;
4756;SDS011;2392;52.578;13.426;2022-11-15T13:31:44;17.23;;;13.70;;
4756;SDS011;2392;52.578;13.426;2022-11-15T13:34:16;19.40;;;15.00;;
4756;SDS011;2392;52.578;13.426;2022-11-15T13:36:55;23.37;;;15.00;;
4756;SDS011;2392;52.578;13.426;2022-11-15T13:39:27;16.30;;;13.00;;
4756;SDS011;2392;52.578;13.426;2022-11-15T13:41:57;21.53;;;13.43;;
4756;SDS011;2392;52.578;13.426;2022-11-15T13:44:25;20.77;;;14.03;;
4756;SDS011;2392;52.578;13.426;2022-11-15T13:47:03;17.97;;;14.57;;
4756;SDS011;2392;52.578;13.426;2022-11-15T13:49:32;18.53;;;14.23;;
4756;SDS011;2392;52.578;13.426;2022-11-15T13:52:00;16.80;;;13.20;;
4756;SDS011;2392;52.578;13.426;2022-11-15T13:54:31;21.90;;;15.30;;
4756;SDS011;2392;52.578;13.426;2022-11-15T13:57:03;22.80;;;15.47;;
4756;SDS011;2392;52.578;13.426;2022-11-15T13:59:36;19.57;;;15.80;;
4756;SDS011;2392;52.578;13.426;2022-11-15T14:02:12;19.87;;;15.73;;
4756;SDS011;2392;52.578;13.426;2022-11-15T14:04:45;26.23;;;16.90;;
4756;SDS011;2392;52.578;13.426;2022-11-15T14:07:16;21.53;;;14.80;;
4756;SDS011;2392;52.578;13.426;2022-11-15T14:09:45;23.47;;;16.60;;
4756;SDS011;2392;52.578;13.426;2022-11-15T14:12:24;18.70;;;15.83;;
4756;SDS011;2392;52.578;13.426;2022-11-15T14:14:57;23.60;;;16.30;;
4756;SDS011;2392;52.578;13.426;2022-11-15T14:17:35;21.03;;;15.50;;
4756;SDS011;2392;52.578;13.426;2022-11-15T14:23:04;22.53;;;16.07;;
4756;SDS011;2392;52.578;13.426;2022-11-15T14:25:51;18.77;;;15.27;;
4756;SDS011;2392;52.578;13.426;2022-11-15T14:28:29;21.70;;;16.20;;
4756;SDS011;2392;52.578;13.426;2022-11-15T14:30:58;20.60;;;14.97;;
4756;SDS011;2392;52.578;13.426;2022-11-15T14:33:27;19.30;;;15.10;;
4756;SDS011;2392;52.578;13.426;2022-11-15T14:35:58;17.60;;;14.27;;
4756;SDS011;2392;52.578;13.426;2022-11-15T14:38:28;19.40;;;15.00;;
4756;SDS011;2392;52.578;13.426;2022-11-15T14:40:55;19.33;;;15.13;;
4756;SDS011;2392;52.578;13.426;2022-11-15T14:43:23;20.00;;;15.60;;
4756;SDS011;2392;52.578;13.426;2022-11-15T14:45:51;23.80;;;15.43;;
4756;SDS011;2392;52.578;13.426;2022-11-15T14:48:19;18.20;;;14.93;;
4756;SDS011;2392;52.578;13.426;2022-11-15T14:50:47;20.13;;;15.97;;
4756;SDS011;2392;52.578;13.426;2022-11-15T14:53:14;22.70;;;16.00;;
4756;SDS011;2392;52.578;13.426;2022-11-15T14:55:45;24.80;;;16.60;;
4756;SDS011;2392;52.578;13.426;2022-11-15T14:58:12;23.63;;;16.83;;
4756;SDS011;2392;52.578;13.426;2022-11-15T15:00:39;25.53;;;17.20;;
4756;SDS011;2392;52.578;13.426;2022-11-15T15:03:11;23.70;;;16.10;;
4756;SDS011;2392;52.578;13.426;2022-11-15T15:05:40;27.07;;;16.43;;
4756;SDS011;2392;52.578;13.426;2022-11-15T15:08:09;23.57;;;16.07;;
4756;SDS011;2392;52.578;13.426;2022-11-15T15:10:38;28.83;;;15.43;;
4756;SDS011;2392;52.578;13.426;2022-11-15T15:13:08;24.77;;;16.57;;
4756;SDS011;2392;52.578;13.426;2022-11-15T15:15:41;29.00;;;17.33;;
4756;SDS011;2392;52.578;13.426;2022-11-15T15:18:08;23.00;;;18.20;;
4756;SDS011;2392;52.578;13.426;2022-11-15T15:20:38;26.73;;;17.00;;
4756;SDS011;2392;52.578;13.426;2022-11-15T15:23:08;21.73;;;16.70;;
4756;SDS011;2392;52.578;13.426;2022-11-15T15:25:42;22.97;;;16.23;;
4756;SDS011;2392;52.578;13.426;2022-11-15T15:28:10;23.50;;;15.90;;
4756;SDS011;2392;52.578;13.426;2022-11-15T15:30:40;27.30;;;17.03;;
4756;SDS011;2392;52.578;13.426;2022-11-15T15:33:08;24.10;;;18.67;;
4756;SDS011;2392;52.578;13.426;2022-11-15T15:35:35;23.30;;;17.13;;
4756;SDS011;2392;52.578;13.426;2022-11-15T15:38:04;24.47;;;17.70;;
4756;SDS011;2392;52.578;13.426;2022-11-15T15:40:32;24.10;;;17.63;;
4756;SDS011;2392;52.578;13.426;2022-11-15T15:42:59;23.57;;;16.47;;
4756;SDS011;2392;52.578;13.426;2022-11-15T15:45:27;24.23;;;17.90;;
4756;SDS011;2392;52.578;13.426;2022-11-15T15:47:54;22.47;;;17.30;;
4756;SDS011;2392;52.578;13.426;2022-11-15T15:50:22;20.10;;;15.93;;
4756;SDS011;2392;52.578;13.426;2022-11-15T15:52:52;25.93;;;18.87;;
4756;SDS011;2392;52.578;13.426;2022-11-15T15:55:21;27.90;;;18.03;;
4756;SDS011;2392;52.578;13.426;2022-11-15T15:57:48;25.67;;;20.20;;
4756;SDS011;2392;52.578;13.426;2022-11-15T16:00:17;27.40;;;21.47;;
4756;SDS011;2392;52.578;13.426;2022-11-15T16:02:45;26.30;;;19.87;;
4756;SDS011;2392;52.578;13.426;2022-11-15T16:05:12;28.60;;;19.50;;
4756;SDS011;2392;52.578;13.426;2022-11-15T16:07:39;24.37;;;18.20;;
4756;SDS011;2392;52.578;13.426;2022-11-15T16:10:15;24.37;;;18.80;;
4756;SDS011;2392;52.578;13.426;2022-11-15T16:12:45;22.60;;;17.80;;
4756;SDS011;2392;52.578;13.426;2022-11-15T16:15:13;25.43;;;19.50;;
4756;SDS011;2392;52.578;13.426;2022-11-15T16:17:40;27.80;;;18.70;;
4756;SDS011;2392;52.578;13.426;2022-11-15T16:20:15;24.87;;;20.40;;
4756;SDS011;2392;52.578;13.426;2022-11-15T16:22:56;22.20;;;18.80;;
4756;SDS011;2392;52.578;13.426;2022-11-15T16:25:25;26.53;;;19.37;;